sensor_id;sensor_type;location;lat;lon;timestamp;pressure;altitude;pressure_sealevel;temperature;humidity
44765;BME280;30484;52.382;5.260;2023-04-29T00:02:14;101589.56;;;14.15;100.00
44765;BME280;30484;52.382;5.260;2023-04-29T00:04:42;101591.00;;;14.39;100.00
44765;BME280;30484;52.382;5.260;2023-04-29T00:07:11;101595.00;;;14.47;100.00
44765;BME280;30484;52.382;5.260;2023-04-29T00:09:43;101591.06;;;14.21;100.00
44765;BME280;30484;52.382;5.260;2023-04-29T00:12:11;101594.69;;;14.20;100.00
44765;BME280;30484;52.382;5.260;2023-04-29T00:14:40;101593.84;;;14.20;100.00
44765;BME280;30484;52.382;5.260;2023-04-29T00:17:09;101601.22;;;14.32;100.00
44765;BME280;30484;52.382;5.260;2023-04-29T00:19:38;101594.44;;;14.25;100.00
44765;BME280;30484;52.382;5.260;2023-04-29T00:22:07;101599.00;;;13.89;100.00
44765;BME280;30484;52.382;5.260;2023-04-29T00:24:35;101608.94;;;14.05;100.00
44765;BME280;30484;52.382;5.260;2023-04-29T00:27:05;101598.13;;;14.40;100.00
44765;BME280;30484;52.382;5.260;2023-04-29T00:29:34;101610.25;;;14.13;100.00
44765;BME280;30484;52.382;5.260;2023-04-29T00:32:03;101612.78;;;14.34;100.00
44765;BME280;30484;52.382;5.260;2023-04-29T00:34:31;101606.94;;;14.26;100.00
44765;BME280;30484;52.382;5.260;2023-04-29T00:37:00;101610.69;;;14.06;100.00
44765;BME280;30484;52.382;5.260;2023-04-29T00:39:28;101609.66;;;14.42;100.00
44765;BME280;30484;52.382;5.260;2023-04-29T00:41:57;101619.63;;;14.40;100.00
44765;BME280;30484;52.382;5.260;2023-04-29T00:44:28;101615.50;;;14.50;100.00
44765;BME280;30484;52.382;5.260;2023-04-29T00:46:56;101627.47;;;14.60;100.00
44765;BME280;30484;52.382;5.260;2023-04-29T00:49:25;101633.63;;;14.29;100.00
44765;BME280;30484;52.382;5.260;2023-04-29T00:51:55;101634.81;;;14.90;100.00
44765;BME280;30484;52.382;5.260;2023-04-29T00:54:24;101639.84;;;14.64;100.00
44765;BME280;30484;52.382;5.260;2023-04-29T00:56:54;101631.28;;;14.56;100.00
44765;BME280;30484;52.382;5.260;2023-04-29T00:59:23;101640.69;;;14.65;100.00
44765;BME280;30484;52.382;5.260;2023-04-29T01:02:00;101640.16;;;14.58;100.00
44765;BME280;30484;52.382;5.260;2023-04-29T01:04:32;101645.22;;;14.64;100.00
44765;BME280;30484;52.382;5.260;2023-04-29T01:07:11;101645.13;;;14.15;100.00
44765;BME280;30484;52.382;5.260;2023-04-29T01:09:52;101644.00;;;14.70;100.00
44765;BME280;30484;52.382;5.260;2023-04-29T01:12:30;101648.97;;;14.60;100.00
44765;BME280;30484;52.382;5.260;2023-04-29T01:15:06;101652.88;;;14.55;100.00
44765;BME280;30484;52.382;5.260;2023-04-29T01:17:42;101656.69;;;14.68;100.00
44765;BME280;30484;52.382;5.260;2023-04-29T01:20:13;101657.38;;;14.88;100.00
44765;BME280;30484;52.382;5.260;2023-04-29T01:22:42;101652.50;;;14.62;100.00
44765;BME280;30484;52.382;5.260;2023-04-29T01:25:12;101657.38;;;14.72;100.00
44765;BME280;30484;52.382;5.260;2023-04-29T01:27:49;101660.56;;;14.62;100.00
44765;BME280;30484;52.382;5.260;2023-04-29T01:30:30;101665.53;;;14.70;100.00
44765;BME280;30484;52.382;5.260;2023-04-29T01:33:09;101665.28;;;14.57;100.00
44765;BME280;30484;52.382;5.260;2023-04-29T01:35:52;101674.00;;;14.45;100.00
44765;BME280;30484;52.382;5.260;2023-04-29T01:38:40;101666.81;;;14.45;100.00
44765;BME280;30484;52.382;5.260;2023-04-29T01:41:15;101673.41;;;14.40;100.00
44765;BME280;30484;52.382;5.260;2023-04-29T01:43:49;101681.63;;;14.37;100.00
44765;BME280;30484;52.382;5.260;2023-04-29T01:46:18;101687.50;;;14.10;100.00
44765;BME280;30484;52.382;5.260;2023-04-29T01:48:46;101689.84;;;14.16;100.00
44765;BME280;30484;52.382;5.260;2023-04-29T01:51:15;101689.31;;;14.27;100.00
44765;BME280;30484;52.382;5.260;2023-04-29T01:53:43;101689.84;;;14.51;100.00
44765;BME280;30484;52.382;5.260;2023-04-29T01:56:13;101689.38;;;14.43;100.00
44765;BME280;30484;52.382;5.260;2023-04-29T01:58:42;101689.47;;;14.75;100.00
44765;BME280;30484;52.382;5.260;2023-04-29T02:01:11;101675.88;;;14.78;100.00
44765;BME280;30484;52.382;5.260;2023-04-29T02:03:40;101683.69;;;14.31;100.00
44765;BME280;30484;52.382;5.260;2023-04-29T02:06:09;101693.06;;;14.91;100.00
44765;BME280;30484;52.382;5.260;2023-04-29T02:08:39;101699.22;;;14.60;100.00
44765;BME280;30484;52.382;5.260;2023-04-29T02:11:08;101689.94;;;14.83;100.00
44765;BME280;30484;52.382;5.260;2023-04-29T02:13:38;101689.19;;;14.46;100.00
44765;BME280;30484;52.382;5.260;2023-04-29T02:16:08;101695.84;;;14.74;100.00
44765;BME280;30484;52.382;5.260;2023-04-29T02:18:36;101701.03;;;14.77;100.00
44765;BME280;30484;52.382;5.260;2023-04-29T02:21:06;101714.22;;;14.81;100.00
44765;BME280;30484;52.382;5.260;2023-04-29T02:23:34;101711.81;;;14.77;100.00
44765;BME280;30484;52.382;5.260;2023-04-29T02:26:03;101718.13;;;14.41;100.00
44765;BME280;30484;52.382;5.260;2023-04-29T02:28:35;101715.88;;;14.84;100.00
44765;BME280;30484;52.382;5.260;2023-04-29T02:31:05;101720.63;;;14.79;100.00
44765;BME280;30484;52.382;5.260;2023-04-29T02:33:34;101730.69;;;14.58;100.00
44765;BME280;30484;52.382;5.260;2023-04-29T02:36:03;101732.59;;;14.56;100.00
44765;BME280;30484;52.382;5.260;2023-04-29T02:38:33;101732.16;;;14.12;100.00
44765;BME280;30484;52.382;5.260;2023-04-29T02:41:02;101730.47;;;14.45;100.00
44765;BME280;30484;52.382;5.260;2023-04-29T02:43:31;101736.00;;;14.77;100.00
44765;BME280;30484;52.382;5.260;2023-04-29T02:45:59;101731.03;;;14.52;100.00
44765;BME280;30484;52.382;5.260;2023-04-29T02:48:29;101738.63;;;14.61;100.00
44765;BME280;30484;52.382;5.260;2023-04-29T02:50:57;101746.13;;;14.72;100.00
44765;BME280;30484;52.382;5.260;2023-04-29T02:53:26;101740.41;;;14.95;100.00
44765;BME280;30484;52.382;5.260;2023-04-29T02:55:54;101745.66;;;14.46;100.00
44765;BME280;30484;52.382;5.260;2023-04-29T02:58:23;101744.16;;;14.40;100.00
44765;BME280;30484;52.382;5.260;2023-04-29T03:00:52;101738.41;;;14.48;100.00
44765;BME280;30484;52.382;5.260;2023-04-29T03:03:20;101751.97;;;14.80;100.00
44765;BME280;30484;52.382;5.260;2023-04-29T03:05:53;101747.66;;;14.93;100.00
44765;BME280;30484;52.382;5.260;2023-04-29T03:08:22;101764.16;;;14.87;100.00
44765;BME280;30484;52.382;5.260;2023-04-29T03:10:51;101758.41;;;14.93;100.00
44765;BME280;30484;52.382;5.260;2023-04-29T03:13:19;101765.34;;;14.81;100.00
44765;BME280;30484;52.382;5.260;2023-04-29T03:15:48;101764.78;;;14.57;100.00
44765;BME280;30484;52.382;5.260;2023-04-29T03:18:17;101774.88;;;14.71;100.00
44765;BME280;30484;52.382;5.260;2023-04-29T03:20:45;101773.38;;;14.65;100.00
44765;BME280;30484;52.382;5.260;2023-04-29T03:23:15;101774.53;;;14.60;100.00
44765;BME280;30484;52.382;5.260;2023-04-29T03:25:44;101771.34;;;14.87;100.00
44765;BME280;30484;52.382;5.260;2023-04-29T03:28:12;101784.69;;;15.06;100.00
44765;BME280;30484;52.382;5.260;2023-04-29T03:30:40;101783.47;;;14.78;100.00
44765;BME280;30484;52.382;5.260;2023-04-29T03:33:09;101787.41;;;14.88;100.00
44765;BME280;30484;52.382;5.260;2023-04-29T03:35:38;101788.63;;;14.82;100.00
44765;BME280;30484;52.382;5.260;2023-04-29T03:38:06;101777.44;;;14.38;100.00
44765;BME280;30484;52.382;5.260;2023-04-29T03:40:37;101792.19;;;14.65;100.00
44765;BME280;30484;52.382;5.260;2023-04-29T03:43:06;101789.50;;;14.48;100.00
44765;BME280;30484;52.382;5.260;2023-04-29T03:45:35;101792.75;;;14.72;100.00
44765;BME280;30484;52.382;5.260;2023-04-29T03:48:04;101787.59;;;14.67;100.00
44765;BME280;30484;52.382;5.260;2023-04-29T03:50:35;101785.19;;;14.61;100.00
44765;BME280;30484;52.382;5.260;2023-04-29T03:53:04;101798.72;;;14.77;100.00
44765;BME280;30484;52.382;5.260;2023-04-29T03:55:33;101798.66;;;14.44;100.00
44765;BME280;30484;52.382;5.260;2023-04-29T03:58:03;101798.66;;;14.61;100.00
44765;BME280;30484;52.382;5.260;2023-04-29T04:00:31;101797.91;;;14.05;100.00
44765;BME280;30484;52.382;5.260;2023-04-29T04:02:59;101813.34;;;14.54;100.00
44765;BME280;30484;52.382;5.260;2023-04-29T04:05:31;101809.88;;;14.35;100.00
44765;BME280;30484;52.382;5.260;2023-04-29T04:08:03;101808.63;;;14.59;100.00
44765;BME280;30484;52.382;5.260;2023-04-29T04:10:32;101807.69;;;14.78;100.00
44765;BME280;30484;52.382;5.260;2023-04-29T04:13:02;101800.94;;;14.87;100.00
44765;BME280;30484;52.382;5.260;2023-04-29T04:15:30;101807.91;;;14.91;100.00
44765;BME280;30484;52.382;5.260;2023-04-29T04:17:59;101809.41;;;14.96;100.00
44765;BME280;30484;52.382;5.260;2023-04-29T04:20:28;101819.03;;;15.00;100.00
44765;BME280;30484;52.382;5.260;2023-04-29T04:22:57;101811.13;;;14.97;100.00
44765;BME280;30484;52.382;5.260;2023-04-29T04:25:26;101822.44;;;14.52;100.00
44765;BME280;30484;52.382;5.260;2023-04-29T04:27:55;101835.28;;;14.10;100.00
44765;BME280;30484;52.382;5.260;2023-04-29T04:30:25;101830.25;;;14.75;100.00
44765;BME280;30484;52.382;5.260;2023-04-29T04:32:54;101835.75;;;13.81;100.00
44765;BME280;30484;52.382;5.260;2023-04-29T04:35:24;101835.72;;;14.55;100.00
44765;BME280;30484;52.382;5.260;2023-04-29T04:37:53;101831.69;;;14.46;100.00
44765;BME280;30484;52.382;5.260;2023-04-29T04:40:21;101840.00;;;14.59;100.00
44765;BME280;30484;52.382;5.260;2023-04-29T04:42:50;101836.47;;;14.58;100.00
44765;BME280;30484;52.382;5.260;2023-04-29T04:45:21;101834.94;;;14.53;100.00
44765;BME280;30484;52.382;5.260;2023-04-29T04:47:51;101839.84;;;14.44;100.00
44765;BME280;30484;52.382;5.260;2023-04-29T04:50:20;101848.00;;;14.43;100.00
44765;BME280;30484;52.382;5.260;2023-04-29T04:52:48;101854.88;;;14.48;100.00
44765;BME280;30484;52.382;5.260;2023-04-29T04:55:17;101856.56;;;14.14;100.00
44765;BME280;30484;52.382;5.260;2023-04-29T04:57:45;101858.22;;;14.54;100.00
44765;BME280;30484;52.382;5.260;2023-04-29T05:00:14;101867.84;;;14.58;100.00
44765;BME280;30484;52.382;5.260;2023-04-29T05:02:43;101874.31;;;14.36;100.00
44765;BME280;30484;52.382;5.260;2023-04-29T05:05:24;101868.66;;;13.87;100.00
44765;BME280;30484;52.382;5.260;2023-04-29T05:07:58;101879.50;;;14.22;100.00
44765;BME280;30484;52.382;5.260;2023-04-29T05:10:27;101880.31;;;14.24;100.00
44765;BME280;30484;52.382;5.260;2023-04-29T05:12:55;101878.00;;;14.70;100.00
44765;BME280;30484;52.382;5.260;2023-04-29T05:15:24;101886.31;;;14.65;100.00
44765;BME280;30484;52.382;5.260;2023-04-29T05:17:54;101891.06;;;14.95;100.00
44765;BME280;30484;52.382;5.260;2023-04-29T05:20:25;101890.31;;;14.57;100.00
44765;BME280;30484;52.382;5.260;2023-04-29T05:22:53;101895.97;;;14.70;100.00
44765;BME280;30484;52.382;5.260;2023-04-29T05:25:22;101889.19;;;14.43;100.00
44765;BME280;30484;52.382;5.260;2023-04-29T05:27:50;101904.13;;;14.49;100.00
44765;BME280;30484;52.382;5.260;2023-04-29T05:30:19;101905.06;;;14.84;100.00
44765;BME280;30484;52.382;5.260;2023-04-29T05:32:49;101895.53;;;14.96;100.00
44765;BME280;30484;52.382;5.260;2023-04-29T05:35:19;101892.66;;;14.99;100.00
44765;BME280;30484;52.382;5.260;2023-04-29T05:37:57;101905.78;;;15.06;100.00
44765;BME280;30484;52.382;5.260;2023-04-29T05:40:26;101909.72;;;15.16;100.00
44765;BME280;30484;52.382;5.260;2023-04-29T05:42:54;101911.00;;;15.09;100.00
44765;BME280;30484;52.382;5.260;2023-04-29T05:45:26;101912.56;;;15.30;100.00
44765;BME280;30484;52.382;5.260;2023-04-29T05:48:16;101910.50;;;15.35;100.00
44765;BME280;30484;52.382;5.260;2023-04-29T05:50:44;101913.66;;;15.44;100.00
44765;BME280;30484;52.382;5.260;2023-04-29T05:53:15;101924.59;;;15.41;100.00
44765;BME280;30484;52.382;5.260;2023-04-29T05:55:44;101926.28;;;14.73;100.00
44765;BME280;30484;52.382;5.260;2023-04-29T05:58:15;101923.53;;;15.10;100.00
44765;BME280;30484;52.382;5.260;2023-04-29T06:00:44;101931.91;;;15.21;100.00
44765;BME280;30484;52.382;5.260;2023-04-29T06:03:15;101939.81;;;15.24;100.00
44765;BME280;30484;52.382;5.260;2023-04-29T06:05:44;101944.72;;;15.33;100.00
44765;BME280;30484;52.382;5.260;2023-04-29T06:08:15;101932.84;;;15.20;100.00
44765;BME280;30484;52.382;5.260;2023-04-29T06:10:46;101947.56;;;15.30;100.00
44765;BME280;30484;52.382;5.260;2023-04-29T06:13:14;101950.28;;;14.95;100.00
44765;BME280;30484;52.382;5.260;2023-04-29T06:15:43;101953.97;;;15.45;100.00
44765;BME280;30484;52.382;5.260;2023-04-29T06:18:12;101954.53;;;15.52;100.00
44765;BME280;30484;52.382;5.260;2023-04-29T06:20:41;101950.56;;;15.42;100.00
44765;BME280;30484;52.382;5.260;2023-04-29T06:23:09;101961.59;;;15.37;100.00
44765;BME280;30484;52.382;5.260;2023-04-29T06:25:42;101967.75;;;15.57;100.00
44765;BME280;30484;52.382;5.260;2023-04-29T06:28:10;101977.16;;;15.65;100.00
44765;BME280;30484;52.382;5.260;2023-04-29T06:30:39;101972.31;;;16.05;100.00
44765;BME280;30484;52.382;5.260;2023-04-29T06:33:07;101962.81;;;15.98;100.00
44765;BME280;30484;52.382;5.260;2023-04-29T06:35:38;101977.13;;;16.32;100.00
44765;BME280;30484;52.382;5.260;2023-04-29T06:38:07;101973.19;;;16.38;100.00
44765;BME280;30484;52.382;5.260;2023-04-29T06:40:36;101965.28;;;16.51;100.00
44765;BME280;30484;52.382;5.260;2023-04-29T06:43:08;101983.53;;;16.46;100.00
44765;BME280;30484;52.382;5.260;2023-04-29T06:45:36;101989.91;;;15.79;100.00
44765;BME280;30484;52.382;5.260;2023-04-29T06:48:05;101991.03;;;16.41;100.00
44765;BME280;30484;52.382;5.260;2023-04-29T06:50:33;101992.69;;;15.43;100.00
44765;BME280;30484;52.382;5.260;2023-04-29T06:53:02;102005.19;;;16.12;100.00
44765;BME280;30484;52.382;5.260;2023-04-29T06:55:36;101993.72;;;16.56;100.00
44765;BME280;30484;52.382;5.260;2023-04-29T06:58:04;102002.16;;;16.34;100.00
44765;BME280;30484;52.382;5.260;2023-04-29T07:00:34;102010.59;;;16.92;100.00
44765;BME280;30484;52.382;5.260;2023-04-29T07:03:02;102012.59;;;16.72;100.00
44765;BME280;30484;52.382;5.260;2023-04-29T07:05:31;102019.31;;;17.28;100.00
44765;BME280;30484;52.382;5.260;2023-04-29T07:07:59;102022.69;;;16.85;100.00
44765;BME280;30484;52.382;5.260;2023-04-29T07:10:27;102026.63;;;17.25;100.00
44765;BME280;30484;52.382;5.260;2023-04-29T07:12:56;102022.78;;;16.99;100.00
44765;BME280;30484;52.382;5.260;2023-04-29T07:15:26;102028.56;;;17.68;100.00
44765;BME280;30484;52.382;5.260;2023-04-29T07:17:57;102027.81;;;17.66;100.00
44765;BME280;30484;52.382;5.260;2023-04-29T07:20:26;102034.34;;;17.62;100.00
44765;BME280;30484;52.382;5.260;2023-04-29T07:22:54;102039.00;;;17.30;100.00
44765;BME280;30484;52.382;5.260;2023-04-29T07:25:22;102040.06;;;17.86;100.00
44765;BME280;30484;52.382;5.260;2023-04-29T07:27:50;102047.28;;;17.71;100.00
44765;BME280;30484;52.382;5.260;2023-04-29T07:30:18;102050.97;;;17.40;100.00
44765;BME280;30484;52.382;5.260;2023-04-29T07:32:46;102049.16;;;17.40;100.00
44765;BME280;30484;52.382;5.260;2023-04-29T07:35:16;102058.31;;;17.07;100.00
44765;BME280;30484;52.382;5.260;2023-04-29T07:37:44;102055.25;;;17.14;100.00
44765;BME280;30484;52.382;5.260;2023-04-29T07:40:12;102051.53;;;17.31;100.00
44765;BME280;30484;52.382;5.260;2023-04-29T07:42:40;102049.81;;;17.60;100.00
44765;BME280;30484;52.382;5.260;2023-04-29T07:45:09;102055.28;;;17.58;100.00
44765;BME280;30484;52.382;5.260;2023-04-29T07:47:37;102052.25;;;17.79;100.00
44765;BME280;30484;52.382;5.260;2023-04-29T07:50:09;102064.69;;;17.82;100.00
44765;BME280;30484;52.382;5.260;2023-04-29T07:52:38;102064.28;;;17.73;100.00
44765;BME280;30484;52.382;5.260;2023-04-29T07:55:08;102068.75;;;17.89;100.00
44765;BME280;30484;52.382;5.260;2023-04-29T07:57:36;102070.34;;;17.93;100.00
44765;BME280;30484;52.382;5.260;2023-04-29T08:00:07;102080.78;;;18.14;100.00
44765;BME280;30484;52.382;5.260;2023-04-29T08:02:39;102073.63;;;17.53;100.00
44765;BME280;30484;52.382;5.260;2023-04-29T08:05:09;102088.72;;;17.72;100.00
44765;BME280;30484;52.382;5.260;2023-04-29T08:07:39;102088.28;;;17.94;100.00
44765;BME280;30484;52.382;5.260;2023-04-29T08:10:08;102095.16;;;18.57;100.00
44765;BME280;30484;52.382;5.260;2023-04-29T08:12:37;102095.25;;;18.56;100.00
44765;BME280;30484;52.382;5.260;2023-04-29T08:15:06;102095.56;;;18.22;100.00
44765;BME280;30484;52.382;5.260;2023-04-29T08:17:36;102099.31;;;18.63;100.00
44765;BME280;30484;52.382;5.260;2023-04-29T08:20:05;102102.72;;;18.38;100.00
44765;BME280;30484;52.382;5.260;2023-04-29T08:22:34;102096.69;;;18.76;100.00
44765;BME280;30484;52.382;5.260;2023-04-29T08:25:05;102111.53;;;18.41;100.00
44765;BME280;30484;52.382;5.260;2023-04-29T08:27:33;102108.94;;;18.96;100.00
44765;BME280;30484;52.382;5.260;2023-04-29T08:30:02;102110.53;;;18.42;100.00
44765;BME280;30484;52.382;5.260;2023-04-29T08:32:30;102114.94;;;19.01;100.00
44765;BME280;30484;52.382;5.260;2023-04-29T08:35:00;102116.84;;;19.26;100.00
44765;BME280;30484;52.382;5.260;2023-04-29T08:37:31;102118.56;;;19.14;100.00
44765;BME280;30484;52.382;5.260;2023-04-29T08:39:59;102121.22;;;19.29;100.00
44765;BME280;30484;52.382;5.260;2023-04-29T08:42:33;102112.22;;;19.01;100.00
44765;BME280;30484;52.382;5.260;2023-04-29T08:45:03;102131.09;;;19.30;100.00
44765;BME280;30484;52.382;5.260;2023-04-29T08:47:33;102118.28;;;19.05;100.00
44765;BME280;30484;52.382;5.260;2023-04-29T08:50:03;102123.78;;;18.61;100.00
44765;BME280;30484;52.382;5.260;2023-04-29T08:52:32;102141.03;;;19.02;100.00
44765;BME280;30484;52.382;5.260;2023-04-29T08:55:01;102135.06;;;18.68;100.00
44765;BME280;30484;52.382;5.260;2023-04-29T08:57:34;102134.84;;;19.00;100.00
44765;BME280;30484;52.382;5.260;2023-04-29T09:00:07;102131.50;;;18.39;100.00
44765;BME280;30484;52.382;5.260;2023-04-29T09:02:42;102138.25;;;18.75;100.00
44765;BME280;30484;52.382;5.260;2023-04-29T09:05:12;102140.28;;;18.86;100.00
44765;BME280;30484;52.382;5.260;2023-04-29T09:07:41;102144.81;;;18.71;100.00
44765;BME280;30484;52.382;5.260;2023-04-29T09:10:10;102149.19;;;18.73;100.00
44765;BME280;30484;52.382;5.260;2023-04-29T09:12:40;102147.63;;;18.84;100.00
44765;BME280;30484;52.382;5.260;2023-04-29T09:15:09;102148.16;;;19.18;100.00
44765;BME280;30484;52.382;5.260;2023-04-29T09:17:39;102156.16;;;19.46;100.00
44765;BME280;30484;52.382;5.260;2023-04-29T09:20:30;102155.38;;;19.72;100.00
44765;BME280;30484;52.382;5.260;2023-04-29T09:23:00;102155.28;;;19.73;100.00
44765;BME280;30484;52.382;5.260;2023-04-29T09:25:29;102153.66;;;19.43;100.00
44765;BME280;30484;52.382;5.260;2023-04-29T09:28:14;102156.00;;;19.90;100.00
44765;BME280;30484;52.382;5.260;2023-04-29T09:30:46;102158.81;;;19.61;100.00
44765;BME280;30484;52.382;5.260;2023-04-29T09:33:16;102157.72;;;19.51;100.00
44765;BME280;30484;52.382;5.260;2023-04-29T09:35:44;102155.81;;;19.65;100.00
44765;BME280;30484;52.382;5.260;2023-04-29T09:38:15;102151.56;;;19.89;100.00
44765;BME280;30484;52.382;5.260;2023-04-29T09:40:43;102156.47;;;19.14;100.00
44765;BME280;30484;52.382;5.260;2023-04-29T09:43:26;102162.22;;;20.17;100.00
44765;BME280;30484;52.382;5.260;2023-04-29T09:45:54;102156.13;;;20.14;100.00
44765;BME280;30484;52.382;5.260;2023-04-29T09:48:30;102169.72;;;20.14;100.00
44765;BME280;30484;52.382;5.260;2023-04-29T09:51:00;102164.38;;;20.51;100.00
44765;BME280;30484;52.382;5.260;2023-04-29T09:53:30;102169.59;;;20.15;100.00
44765;BME280;30484;52.382;5.260;2023-04-29T09:56:00;102176.84;;;20.41;100.00
44765;BME280;30484;52.382;5.260;2023-04-29T09:58:32;102178.59;;;20.03;100.00
44765;BME280;30484;52.382;5.260;2023-04-29T10:01:05;102174.13;;;20.53;100.00
44765;BME280;30484;52.382;5.260;2023-04-29T10:03:35;102173.50;;;20.50;100.00
44765;BME280;30484;52.382;5.260;2023-04-29T10:06:06;102174.34;;;20.63;100.00
44765;BME280;30484;52.382;5.260;2023-04-29T10:08:34;102173.72;;;20.60;100.00
44765;BME280;30484;52.382;5.260;2023-04-29T10:11:03;102177.97;;;20.51;100.00
44765;BME280;30484;52.382;5.260;2023-04-29T10:13:34;102178.94;;;20.11;100.00
44765;BME280;30484;52.382;5.260;2023-04-29T10:16:15;102179.56;;;20.28;100.00
44765;BME280;30484;52.382;5.260;2023-04-29T10:18:52;102186.00;;;20.27;100.00
44765;BME280;30484;52.382;5.260;2023-04-29T10:21:29;102180.97;;;20.33;100.00
44765;BME280;30484;52.382;5.260;2023-04-29T10:24:02;102176.09;;;20.51;100.00
44765;BME280;30484;52.382;5.260;2023-04-29T10:26:36;102186.16;;;21.01;100.00
44765;BME280;30484;52.382;5.260;2023-04-29T10:29:08;102182.16;;;20.94;100.00
44765;BME280;30484;52.382;5.260;2023-04-29T10:31:37;102176.94;;;19.88;100.00
44765;BME280;30484;52.382;5.260;2023-04-29T10:34:07;102179.38;;;20.57;100.00
44765;BME280;30484;52.382;5.260;2023-04-29T10:36:36;102188.13;;;20.99;100.00
44765;BME280;30484;52.382;5.260;2023-04-29T10:39:08;102183.03;;;20.94;100.00
44765;BME280;30484;52.382;5.260;2023-04-29T10:41:43;102187.66;;;20.68;100.00
44765;BME280;30484;52.382;5.260;2023-04-29T10:44:14;102189.56;;;20.14;100.00
44765;BME280;30484;52.382;5.260;2023-04-29T10:46:57;102183.88;;;20.95;100.00
44765;BME280;30484;52.382;5.260;2023-04-29T10:50:04;102186.00;;;20.52;100.00
44765;BME280;30484;52.382;5.260;2023-04-29T10:52:52;102180.47;;;20.54;100.00
44765;BME280;30484;52.382;5.260;2023-04-29T10:55:22;102186.72;;;20.16;100.00
44765;BME280;30484;52.382;5.260;2023-04-29T10:57:52;102177.16;;;20.88;100.00
44765;BME280;30484;52.382;5.260;2023-04-29T11:00:26;102184.66;;;20.97;100.00
44765;BME280;30484;52.382;5.260;2023-04-29T11:02:55;102179.59;;;20.79;100.00
44765;BME280;30484;52.382;5.260;2023-04-29T11:05:30;102184.81;;;20.82;100.00
44765;BME280;30484;52.382;5.260;2023-04-29T11:08:09;102179.75;;;20.89;100.00
44765;BME280;30484;52.382;5.260;2023-04-29T11:10:41;102173.69;;;21.60;100.00
44765;BME280;30484;52.382;5.260;2023-04-29T11:13:21;102172.50;;;21.75;100.00
44765;BME280;30484;52.382;5.260;2023-04-29T11:16:04;102172.63;;;21.49;100.00
44765;BME280;30484;52.382;5.260;2023-04-29T11:19:03;102179.34;;;22.28;100.00
44765;BME280;30484;52.382;5.260;2023-04-29T11:21:33;102180.97;;;21.83;100.00
44765;BME280;30484;52.382;5.260;2023-04-29T11:24:04;102178.63;;;22.01;100.00
44765;BME280;30484;52.382;5.260;2023-04-29T11:26:36;102183.00;;;22.15;100.00
44765;BME280;30484;52.382;5.260;2023-04-29T11:29:07;102174.03;;;22.49;100.00
44765;BME280;30484;52.382;5.260;2023-04-29T11:31:44;102182.09;;;22.39;100.00
44765;BME280;30484;52.382;5.260;2023-04-29T11:34:13;102187.38;;;22.29;100.00
44765;BME280;30484;52.382;5.260;2023-04-29T11:36:44;102186.53;;;22.97;100.00
44765;BME280;30484;52.382;5.260;2023-04-29T11:39:17;102183.41;;;22.22;100.00
44765;BME280;30484;52.382;5.260;2023-04-29T11:41:46;102190.53;;;22.70;100.00
44765;BME280;30484;52.382;5.260;2023-04-29T11:44:21;102196.34;;;22.54;100.00
44765;BME280;30484;52.382;5.260;2023-04-29T11:46:51;102194.34;;;22.90;100.00
44765;BME280;30484;52.382;5.260;2023-04-29T11:49:29;102187.47;;;22.16;100.00
44765;BME280;30484;52.382;5.260;2023-04-29T11:51:58;102195.50;;;22.76;100.00
44765;BME280;30484;52.382;5.260;2023-04-29T11:54:28;102203.41;;;23.24;100.00
44765;BME280;30484;52.382;5.260;2023-04-29T11:56:57;102190.25;;;22.96;100.00
44765;BME280;30484;52.382;5.260;2023-04-29T11:59:26;102200.47;;;22.24;100.00
44765;BME280;30484;52.382;5.260;2023-04-29T12:01:57;102205.25;;;23.68;100.00
44765;BME280;30484;52.382;5.260;2023-04-29T12:04:26;102204.59;;;23.43;100.00
44765;BME280;30484;52.382;5.260;2023-04-29T12:06:56;102204.94;;;23.82;100.00
44765;BME280;30484;52.382;5.260;2023-04-29T12:09:25;102204.31;;;24.11;100.00
44765;BME280;30484;52.382;5.260;2023-04-29T12:11:54;102208.38;;;23.84;100.00
44765;BME280;30484;52.382;5.260;2023-04-29T12:14:23;102198.88;;;23.46;100.00
44765;BME280;30484;52.382;5.260;2023-04-29T12:16:51;102197.94;;;23.57;100.00
44765;BME280;30484;52.382;5.260;2023-04-29T12:19:23;102203.44;;;24.32;100.00
44765;BME280;30484;52.382;5.260;2023-04-29T12:21:53;102207.69;;;23.27;100.00
44765;BME280;30484;52.382;5.260;2023-04-29T12:24:21;102205.72;;;23.73;100.00
44765;BME280;30484;52.382;5.260;2023-04-29T12:26:50;102213.97;;;24.36;100.00
44765;BME280;30484;52.382;5.260;2023-04-29T12:29:20;102214.59;;;24.50;100.00
44765;BME280;30484;52.382;5.260;2023-04-29T12:31:52;102220.38;;;24.04;100.00
44765;BME280;30484;52.382;5.260;2023-04-29T12:34:26;102212.25;;;23.93;100.00
44765;BME280;30484;52.382;5.260;2023-04-29T12:36:55;102207.09;;;24.21;100.00
44765;BME280;30484;52.382;5.260;2023-04-29T12:39:26;102207.38;;;24.39;100.00
44765;BME280;30484;52.382;5.260;2023-04-29T12:41:57;102211.06;;;24.80;100.00
44765;BME280;30484;52.382;5.260;2023-04-29T12:44:33;102216.78;;;25.18;100.00
44765;BME280;30484;52.382;5.260;2023-04-29T12:47:08;102223.63;;;24.61;92.95
44765;BME280;30484;52.382;5.260;2023-04-29T12:49:41;102211.16;;;24.26;92.33
44765;BME280;30484;52.382;5.260;2023-04-29T12:52:10;102213.25;;;25.37;92.82
44765;BME280;30484;52.382;5.260;2023-04-29T12:54:39;102218.66;;;24.76;92.14
44765;BME280;30484;52.382;5.260;2023-04-29T12:57:10;102228.25;;;24.71;88.31
44765;BME280;30484;52.382;5.260;2023-04-29T12:59:40;102216.06;;;24.75;87.32